Time;durP1;ratioP1;P1;durP2;ratioP2;P2;SDS_P1;SDS_P2;PMS_P1;PMS_P2;Temp;Humidity;BMP_temperature;BMP_pressure;BME280_temperature;BME280_humidity;BME280_pressure;Samples;Min_cycle;Max_cycle;Signal;HPM_P1;HPM_P2
2023/03/22 00:00:38;;;;;;;61.03;24.53;;;;;;;;;;5092167;28;20202;-62
2023/03/22 00:03:06;;;;;;;7.17;4.40;;;;;;;;;;5101644;28;20213;-61
2023/03/22 00:05:33;;;;;;;9.23;4.87;;;;;;;;;;5095950;28;20531;-61
2023/03/22 00:08:04;;;;;;;5.43;3.97;;;;;;;;;;5088424;28;20256;-61
2023/03/22 00:10:31;;;;;;;5.67;3.70;;;;;;;;;;5088020;28;20207;-61
2023/03/22 00:12:59;;;;;;;7.07;4.27;;;;;;;;;;5086239;28;20221;-61
2023/03/22 00:15:28;;;;;;;5.20;4.30;;;;;;;;;;5087557;28;20214;-61
2023/03/22 00:17:55;;;;;;;5.37;4.37;;;;;;;;;;5082233;28;20238;-61
2023/03/22 00:20:23;;;;;;;6.97;4.27;;;;;;;;;;5087991;28;20225;-61
2023/03/22 00:22:50;;;;;;;7.90;4.47;;;;;;;;;;5087580;28;20242;-61
2023/03/22 00:25:18;;;;;;;6.80;4.90;;;;;;;;;;5083775;28;20213;-61
2023/03/22 00:27:45;;;;;;;8.97;4.57;;;;;;;;;;5085591;28;20209;-61
2023/03/22 00:30:12;;;;;;;7.30;4.23;;;;;;;;;;5090447;28;20205;-61
2023/03/22 00:32:41;;;;;;;7.23;4.20;;;;;;;;;;5083015;28;20209;-61
2023/03/22 00:35:08;;;;;;;7.73;4.77;;;;;;;;;;5084288;28;20215;-61
2023/03/22 00:37:37;;;;;;;7.93;4.40;;;;;;;;;;5083283;28;20218;-61
2023/03/22 00:40:07;;;;;;;6.07;4.77;;;;;;;;;;5087299;28;20229;-62
2023/03/22 00:42:34;;;;;;;7.80;4.53;;;;;;;;;;5090989;28;20213;-61
2023/03/22 00:45:01;;;;;;;6.13;4.53;;;;;;;;;;5091210;28;20209;-61
2023/03/22 00:47:28;;;;;;;4.77;4.27;;;;;;;;;;5093587;28;20205;-61
2023/03/22 00:49:55;;;;;;;7.77;4.73;;;;;;;;;;5090201;28;20207;-62
2023/03/22 00:52:22;;;;;;;7.17;5.07;;;;;;;;;;5088953;28;20226;-61
2023/03/22 00:54:51;;;;;;;5.90;4.10;;;;;;;;;;5089093;28;20194;-61
2023/03/22 00:57:18;;;;;;;6.17;4.57;;;;;;;;;;5089005;28;20302;-61
2023/03/22 00:59:45;;;;;;;8.10;5.17;;;;;;;;;;5090475;28;20696;-61
2023/03/22 01:02:13;;;;;;;6.97;5.20;;;;;;;;;;5097343;28;20205;-61
2023/03/22 01:04:45;;;;;;;6.50;5.10;;;;;;;;;;5087358;28;20207;-61
2023/03/22 01:07:16;;;;;;;6.80;5.43;;;;;;;;;;5097016;28;20208;-61
2023/03/22 01:09:43;;;;;;;11.50;5.57;;;;;;;;;;5093321;28;20199;-61
2023/03/22 01:12:12;;;;;;;7.73;5.50;;;;;;;;;;5088297;28;20205;-61
2023/03/22 01:14:39;;;;;;;6.80;5.47;;;;;;;;;;5086442;28;20213;-61
2023/03/22 01:17:06;;;;;;;9.63;5.40;;;;;;;;;;5090292;28;20259;-61
2023/03/22 01:19:33;;;;;;;7.20;5.10;;;;;;;;;;5091557;28;20221;-61
2023/03/22 01:22:00;;;;;;;8.07;5.50;;;;;;;;;;5087913;28;20851;-61
2023/03/22 01:24:28;;;;;;;6.73;5.40;;;;;;;;;;5089592;28;20281;-61
2023/03/22 01:26:55;;;;;;;8.10;5.70;;;;;;;;;;5089843;28;20256;-61
2023/03/22 01:29:23;;;;;;;7.23;5.10;;;;;;;;;;5086420;28;20764;-61
2023/03/22 01:31:50;;;;;;;12.17;5.87;;;;;;;;;;5092794;28;20202;-61
2023/03/22 01:34:17;;;;;;;7.13;5.13;;;;;;;;;;5089056;28;20210;-61
2023/03/22 01:36:45;;;;;;;6.47;5.23;;;;;;;;;;5090458;28;20214;-61
2023/03/22 01:39:12;;;;;;;10.23;5.80;;;;;;;;;;5089961;28;20210;-61
2023/03/22 01:41:39;;;;;;;11.33;5.63;;;;;;;;;;5091950;28;20207;-61
2023/03/22 01:44:10;;;;;;;7.67;5.63;;;;;;;;;;5091218;28;20218;-61
2023/03/22 01:46:38;;;;;;;7.97;5.83;;;;;;;;;;5088381;28;20206;-61
2023/03/22 01:49:07;;;;;;;7.97;6.00;;;;;;;;;;5086476;28;20210;-61
2023/03/22 01:51:34;;;;;;;8.73;5.53;;;;;;;;;;5087145;28;20202;-61
2023/03/22 01:54:03;;;;;;;9.23;5.97;;;;;;;;;;5091499;28;20195;-61
2023/03/22 01:56:31;;;;;;;6.25;5.38;;;;;;;;;;5084171;28;20942;-59
2023/03/22 01:58:59;;;;;;;11.13;5.80;;;;;;;;;;5077424;28;20220;-61
2023/03/22 02:01:27;;;;;;;13.77;8.30;;;;;;;;;;5089698;28;20490;-61
2023/03/22 02:03:56;;;;;;;9.67;6.40;;;;;;;;;;5084081;28;20290;-61
2023/03/22 02:06:24;;;;;;;14.83;7.87;;;;;;;;;;5077733;28;20203;-62
2023/03/22 02:08:56;;;;;;;9.87;6.07;;;;;;;;;;5091691;28;20198;-61
2023/03/22 02:11:27;;;;;;;9.63;5.93;;;;;;;;;;5092134;28;20206;-61
2023/03/22 02:14:10;;;;;;;9.03;5.67;;;;;;;;;;5091159;28;20209;-60
2023/03/22 02:19:50;;;;;;;7.17;5.43;;;;;;;;;;5089932;28;20209;-61
2023/03/22 02:22:46;;;;;;;9.30;5.63;;;;;;;;;;5100438;28;20302;-61
2023/03/22 02:25:30;;;;;;;8.53;5.97;;;;;;;;;;5091502;28;20202;-61
2023/03/22 02:28:08;;;;;;;8.57;5.67;;;;;;;;;;5101787;28;20205;-61
2023/03/22 02:30:55;;;;;;;8.93;5.77;;;;;;;;;;5102989;28;20206;-61
2023/03/22 02:33:34;;;;;;;7.20;5.53;;;;;;;;;;5079295;28;20202;-61
2023/03/22 02:36:21;;;;;;;9.27;5.50;;;;;;;;;;5091104;28;20209;-61
2023/03/22 02:39:06;;;;;;;7.57;5.53;;;;;;;;;;5096698;28;20202;-61
2023/03/22 02:41:41;;;;;;;9.77;5.57;;;;;;;;;;5099273;28;20305;-61
2023/03/22 02:44:10;;;;;;;8.00;4.97;;;;;;;;;;5091052;28;20232;-61
2023/03/22 02:46:42;;;;;;;7.77;5.10;;;;;;;;;;5094851;28;20194;-61
2023/03/22 02:49:14;;;;;;;9.90;5.77;;;;;;;;;;5081900;28;20238;-61
2023/03/22 02:51:43;;;;;;;8.63;5.17;;;;;;;;;;5106557;28;20206;-61
2023/03/22 02:54:12;;;;;;;6.43;5.17;;;;;;;;;;5089631;28;20206;-61
2023/03/22 02:56:43;;;;;;;7.93;5.63;;;;;;;;;;5091733;28;20226;-61
2023/03/22 02:59:11;;;;;;;6.87;5.03;;;;;;;;;;5091050;28;20217;-61
2023/03/22 03:01:39;;;;;;;8.47;5.87;;;;;;;;;;5090329;28;20210;-61
2023/03/22 03:04:10;;;;;;;8.17;5.80;;;;;;;;;;5106491;28;20205;-61
2023/03/22 03:06:38;;;;;;;7.50;5.60;;;;;;;;;;5093627;28;20206;-61
2023/03/22 03:09:05;;;;;;;8.83;5.57;;;;;;;;;;5090964;28;20298;-61
2023/03/22 03:11:33;;;;;;;7.47;4.90;;;;;;;;;;5091564;28;20202;-61
2023/03/22 03:14:01;;;;;;;6.63;5.23;;;;;;;;;;5092000;28;20241;-61
2023/03/22 03:16:29;;;;;;;6.60;4.93;;;;;;;;;;5096280;28;20198;-61
2023/03/22 03:18:59;;;;;;;8.53;5.27;;;;;;;;;;5091639;28;20213;-61
2023/03/22 03:21:33;;;;;;;8.30;5.60;;;;;;;;;;5082261;28;20222;-61
2023/03/22 03:24:07;;;;;;;7.70;4.53;;;;;;;;;;5090204;28;20206;-61
2023/03/22 03:26:37;;;;;;;10.00;5.43;;;;;;;;;;5108639;28;20621;-61
2023/03/22 03:29:08;;;;;;;7.93;5.07;;;;;;;;;;5099826;28;20251;-61
2023/03/22 03:31:37;;;;;;;6.83;4.87;;;;;;;;;;5101477;28;20575;-60
2023/03/22 03:34:11;;;;;;;8.43;4.70;;;;;;;;;;5108287;28;20202;-67
2023/03/22 03:36:40;;;;;;;6.90;4.10;;;;;;;;;;5091242;28;20707;-61
2023/03/22 03:39:10;;;;;;;9.20;4.53;;;;;;;;;;5096288;28;20205;-61
2023/03/22 03:41:37;;;;;;;11.37;6.67;;;;;;;;;;5090033;28;20835;-60
2023/03/22 03:44:06;;;;;;;11.87;7.00;;;;;;;;;;5091809;28;20720;-61
2023/03/22 03:46:33;;;;;;;10.77;6.10;;;;;;;;;;5106788;28;20299;-61
2023/03/22 03:49:01;;;;;;;9.93;5.53;;;;;;;;;;5102752;28;20199;-61
2023/03/22 03:51:28;;;;;;;9.47;5.70;;;;;;;;;;5092333;28;20213;-61
2023/03/22 03:53:55;;;;;;;9.10;5.90;;;;;;;;;;5072374;28;20221;-61
2023/03/22 03:56:28;;;;;;;7.27;4.47;;;;;;;;;;5088796;28;20271;-61
2023/03/22 03:58:57;;;;;;;12.33;5.73;;;;;;;;;;5093065;28;20210;-61
2023/03/22 04:01:27;;;;;;;7.83;5.00;;;;;;;;;;5099824;28;20695;-60
2023/03/22 04:03:54;;;;;;;9.63;5.13;;;;;;;;;;5108501;28;20278;-61
2023/03/22 04:06:21;;;;;;;7.13;4.50;;;;;;;;;;5106100;28;20204;-59
2023/03/22 04:08:52;;;;;;;7.13;5.13;;;;;;;;;;5103896;28;20194;-59
2023/03/22 04:11:19;;;;;;;8.10;4.50;;;;;;;;;;5094522;28;20307;-59
2023/03/22 04:13:46;;;;;;;7.50;5.10;;;;;;;;;;5103550;28;20210;-59
2023/03/22 04:16:13;;;;;;;9.80;5.80;;;;;;;;;;5091884;28;20206;-59
2023/03/22 04:18:41;;;;;;;12.03;5.77;;;;;;;;;;5089595;28;20226;-59
2023/03/22 04:21:10;;;;;;;10.67;5.37;;;;;;;;;;5096100;28;20228;-60
2023/03/22 04:23:38;;;;;;;9.57;5.23;;;;;;;;;;5089949;28;20318;-59
2023/03/22 04:26:08;;;;;;;9.40;5.67;;;;;;;;;;5108530;28;20710;-59
2023/03/22 04:28:35;;;;;;;11.70;5.83;;;;;;;;;;5098887;28;20210;-60
2023/03/22 04:31:02;;;;;;;6.13;5.37;;;;;;;;;;5090829;28;20675;-60
2023/03/22 04:33:31;;;;;;;8.77;5.87;;;;;;;;;;5100000;28;20206;-60
2023/03/22 04:35:59;;;;;;;9.30;5.63;;;;;;;;;;5099094;28;20249;-60
2023/03/22 04:38:26;;;;;;;11.10;5.50;;;;;;;;;;5108523;28;20232;-60
2023/03/22 04:40:54;;;;;;;12.23;6.10;;;;;;;;;;5100917;28;20206;-60
2023/03/22 04:43:21;;;;;;;7.33;5.10;;;;;;;;;;5104568;28;20297;-59
2023/03/22 04:45:48;;;;;;;9.37;5.37;;;;;;;;;;5097047;28;20202;-60
2023/03/22 04:48:16;;;;;;;8.63;5.43;;;;;;;;;;5107436;28;20205;-60
2023/03/22 04:50:44;;;;;;;5.00;4.53;;;;;;;;;;5097923;28;20746;-60
2023/03/22 04:53:12;;;;;;;5.83;4.37;;;;;;;;;;5100643;28;20591;-60
2023/03/22 04:55:39;;;;;;;5.10;3.80;;;;;;;;;;5095145;28;20205;-59
2023/03/22 04:58:06;;;;;;;5.47;4.10;;;;;;;;;;5106102;28;20229;-60
2023/03/22 05:00:36;;;;;;;5.53;4.37;;;;;;;;;;5083557;28;20199;-60
2023/03/22 05:03:04;;;;;;;6.97;4.43;;;;;;;;;;5094453;28;20257;-60
2023/03/22 05:05:31;;;;;;;5.80;4.47;;;;;;;;;;5095319;28;20579;-60
2023/03/22 05:07:58;;;;;;;7.20;4.20;;;;;;;;;;5088266;28;20206;-60
2023/03/22 05:10:26;;;;;;;6.40;4.30;;;;;;;;;;5088539;28;20271;-60
2023/03/22 05:12:53;;;;;;;6.27;4.63;;;;;;;;;;5088300;28;20205;-60
2023/03/22 05:15:20;;;;;;;5.23;4.13;;;;;;;;;;5087212;28;20305;-60
2023/03/22 05:17:48;;;;;;;5.50;4.47;;;;;;;;;;5088276;28;20279;-60
2023/03/22 05:20:15;;;;;;;6.83;5.13;;;;;;;;;;5087985;28;20207;-60
2023/03/22 05:22:44;;;;;;;7.13;4.70;;;;;;;;;;5088730;28;20233;-60
2023/03/22 05:25:11;;;;;;;9.47;4.60;;;;;;;;;;5105242;28;20213;-61
2023/03/22 05:27:39;;;;;;;9.13;5.47;;;;;;;;;;5098660;28;20229;-60
2023/03/22 05:30:08;;;;;;;7.60;5.03;;;;;;;;;;5083966;28;20207;-60
2023/03/22 05:32:42;;;;;;;7.17;5.53;;;;;;;;;;5084531;28;20671;-60
2023/03/22 05:35:09;;;;;;;8.33;5.17;;;;;;;;;;5093979;28;20214;-60
2023/03/22 05:37:37;;;;;;;8.57;6.30;;;;;;;;;;5096901;28;20222;-60
2023/03/22 05:40:08;;;;;;;5.90;5.07;;;;;;;;;;5072025;28;20673;-60
2023/03/22 05:42:35;;;;;;;7.50;5.03;;;;;;;;;;5105961;28;20304;-60
2023/03/22 05:45:05;;;;;;;5.87;4.43;;;;;;;;;;5091375;28;20206;-60
2023/03/22 05:47:32;;;;;;;5.80;5.20;;;;;;;;;;5104266;28;20553;-60
2023/03/22 05:50:00;;;;;;;5.57;4.63;;;;;;;;;;5092236;28;20264;-60
2023/03/22 05:52:27;;;;;;;7.23;5.40;;;;;;;;;;5090964;28;20298;-60
2023/03/22 05:54:54;;;;;;;5.13;4.67;;;;;;;;;;5100099;28;20304;-60
2023/03/22 05:57:21;;;;;;;6.50;4.87;;;;;;;;;;5099547;28;20258;-60
2023/03/22 05:59:48;;;;;;;6.90;4.90;;;;;;;;;;5110891;28;20252;-60
2023/03/22 06:02:17;;;;;;;6.53;4.60;;;;;;;;;;5108419;28;20201;-60
2023/03/22 06:04:44;;;;;;;5.90;4.90;;;;;;;;;;5101253;28;20209;-60
2023/03/22 06:07:11;;;;;;;8.43;4.90;;;;;;;;;;5091600;28;20232;-60
2023/03/22 06:09:38;;;;;;;8.10;5.03;;;;;;;;;;5091356;28;20302;-60
2023/03/22 06:12:05;;;;;;;8.20;5.00;;;;;;;;;;5089655;28;20225;-61
2023/03/22 06:14:32;;;;;;;5.37;4.80;;;;;;;;;;5101391;28;20233;-60
2023/03/22 06:16:59;;;;;;;5.53;4.93;;;;;;;;;;5089927;28;20240;-60
2023/03/22 06:19:28;;;;;;;4.73;4.23;;;;;;;;;;5104713;28;20278;-59
2023/03/22 06:21:55;;;;;;;6.50;4.80;;;;;;;;;;5089599;28;20648;-59
2023/03/22 06:24:22;;;;;;;5.30;4.80;;;;;;;;;;5107809;28;20719;-59
2023/03/22 06:26:49;;;;;;;7.93;5.03;;;;;;;;;;5108211;28;20286;-60
2023/03/22 06:29:16;;;;;;;6.47;4.80;;;;;;;;;;5093049;28;20199;-60
2023/03/22 06:31:43;;;;;;;5.70;4.83;;;;;;;;;;5092835;28;20301;-60
2023/03/22 06:34:10;;;;;;;6.57;4.90;;;;;;;;;;5109675;28;20217;-60
2023/03/22 06:36:39;;;;;;;6.93;5.00;;;;;;;;;;5107776;28;20213;-63
2023/03/22 06:39:06;;;;;;;5.27;4.30;;;;;;;;;;5089625;28;20601;-59
2023/03/22 06:41:34;;;;;;;4.53;4.13;;;;;;;;;;5089884;28;20223;-60
2023/03/22 06:44:01;;;;;;;4.23;3.83;;;;;;;;;;5103918;28;20209;-60
2023/03/22 06:46:28;;;;;;;5.27;3.60;;;;;;;;;;5093269;28;20225;-60
2023/03/22 06:48:55;;;;;;;5.93;3.93;;;;;;;;;;5102936;28;20232;-60
2023/03/22 06:51:22;;;;;;;3.20;2.77;;;;;;;;;;5089394;28;20206;-60
2023/03/22 06:53:50;;;;;;;3.20;3.00;;;;;;;;;;5089255;28;20210;-60
2023/03/22 06:56:17;;;;;;;3.07;2.87;;;;;;;;;;5106875;28;20209;-60
2023/03/22 06:58:44;;;;;;;3.70;3.03;;;;;;;;;;5094544;28;20259;-60
2023/03/22 07:01:11;;;;;;;4.00;3.03;;;;;;;;;;5091801;28;20264;-60
2023/03/22 07:03:38;;;;;;;3.60;2.83;;;;;;;;;;5088966;28;20209;-61
2023/03/22 07:06:07;;;;;;;4.03;2.80;;;;;;;;;;5106711;28;20206;-61
2023/03/22 07:08:35;;;;;;;3.43;3.13;;;;;;;;;;5094748;28;20198;-61
2023/03/22 07:11:04;;;;;;;3.87;2.73;;;;;;;;;;5087832;28;20209;-61
2023/03/22 07:13:31;;;;;;;3.17;2.97;;;;;;;;;;5088636;28;20313;-61
2023/03/22 07:15:59;;;;;;;3.70;3.40;;;;;;;;;;5104588;28;20201;-61
2023/03/22 07:18:26;;;;;;;4.00;3.37;;;;;;;;;;5099672;28;20324;-61
2023/03/22 07:20:53;;;;;;;3.30;3.00;;;;;;;;;;5107227;28;20209;-61
2023/03/22 07:23:20;;;;;;;6.37;3.57;;;;;;;;;;5108802;28;20252;-61
2023/03/22 07:25:48;;;;;;;3.77;2.50;;;;;;;;;;5106942;28;20206;-61
2023/03/22 07:28:17;;;;;;;2.57;2.37;;;;;;;;;;5101024;28;20202;-59
2023/03/22 07:30:44;;;;;;;3.00;2.80;;;;;;;;;;5089605;28;20213;-59
2023/03/22 07:33:11;;;;;;;3.00;2.80;;;;;;;;;;5091321;28;20208;-60
2023/03/22 07:35:38;;;;;;;9.07;2.43;;;;;;;;;;5088122;28;20209;-59
2023/03/22 07:38:06;;;;;;;2.43;2.33;;;;;;;;;;5088946;28;20218;-60
2023/03/22 07:40:33;;;;;;;2.23;2.13;;;;;;;;;;5088181;28;20275;-60
2023/03/22 07:43:00;;;;;;;2.27;2.17;;;;;;;;;;5087947;28;20684;-60
2023/03/22 07:45:28;;;;;;;2.10;2.00;;;;;;;;;;5088054;28;20275;-60
2023/03/22 07:47:55;;;;;;;2.43;2.33;;;;;;;;;;5097878;28;20201;-60
2023/03/22 07:50:23;;;;;;;2.00;1.90;;;;;;;;;;5102555;28;20198;-61
2023/03/22 07:52:50;;;;;;;2.40;2.20;;;;;;;;;;5088256;28;20291;-61
2023/03/22 07:55:17;;;;;;;2.17;2.10;;;;;;;;;;5088079;28;20233;-61
2023/03/22 07:57:44;;;;;;;2.87;2.57;;;;;;;;;;5088173;28;20233;-61
2023/03/22 08:00:11;;;;;;;2.23;2.07;;;;;;;;;;5088230;28;20268;-61
2023/03/22 08:02:40;;;;;;;2.43;2.23;;;;;;;;;;5087682;28;20288;-61
2023/03/22 08:05:07;;;;;;;2.40;2.27;;;;;;;;;;5087900;28;20733;-61
2023/03/22 08:07:34;;;;;;;2.30;2.10;;;;;;;;;;5088002;28;20673;-61
2023/03/22 08:10:01;;;;;;;2.17;2.07;;;;;;;;;;5088041;28;20210;-61
2023/03/22 08:12:28;;;;;;;2.70;1.97;;;;;;;;;;5089203;28;20696;-61
2023/03/22 08:14:56;;;;;;;1.80;1.70;;;;;;;;;;5093443;28;20209;-62
2023/03/22 08:17:24;;;;;;;2.50;2.20;;;;;;;;;;5085793;28;20201;-61
2023/03/22 08:19:54;;;;;;;1.83;1.73;;;;;;;;;;5087606;28;20226;-61
2023/03/22 08:22:23;;;;;;;2.30;2.20;;;;;;;;;;5087628;28;20237;-61
2023/03/22 08:24:50;;;;;;;4.10;1.70;;;;;;;;;;5087842;28;20356;-61
2023/03/22 08:27:18;;;;;;;2.20;2.00;;;;;;;;;;5087638;28;20668;-61
2023/03/22 08:29:46;;;;;;;2.23;2.03;;;;;;;;;;5087733;28;20300;-61
2023/03/22 08:32:13;;;;;;;2.10;1.93;;;;;;;;;;5087105;28;20243;-62
2023/03/22 08:34:41;;;;;;;4.10;1.60;;;;;;;;;;5088828;28;20614;-62
2023/03/22 08:37:09;;;;;;;1.70;1.70;;;;;;;;;;5088222;28;20202;-67
2023/03/22 08:39:37;;;;;;;2.13;1.67;;;;;;;;;;5100372;28;20220;-62
2023/03/22 08:42:04;;;;;;;2.40;1.60;;;;;;;;;;5108025;28;20237;-61
2023/03/22 08:44:31;;;;;;;1.98;1.48;;;;;;;;;;5097627;28;20206;-63
2023/03/22 08:46:58;;;;;;;1.60;1.43;;;;;;;;;;5104330;28;20776;-65
2023/03/22 08:49:26;;;;;;;1.50;1.40;;;;;;;;;;5075993;28;20206;-62
2023/03/22 08:51:53;;;;;;;2.23;2.00;;;;;;;;;;5107682;28;20201;-62
2023/03/22 08:54:21;;;;;;;3.17;1.73;;;;;;;;;;5093390;28;20201;-64
2023/03/22 08:56:49;;;;;;;1.65;1.55;;;;;;;;;;5107719;28;20217;-64
2023/03/22 08:59:16;;;;;;;1.83;1.73;;;;;;;;;;5095767;28;20712;-62
2023/03/22 09:01:43;;;;;;;1.77;1.60;;;;;;;;;;5091117;28;20213;-62
2023/03/22 09:04:10;;;;;;;2.33;1.73;;;;;;;;;;5092657;28;20210;-61
2023/03/22 09:06:41;;;;;;;1.80;1.70;;;;;;;;;;5103754;28;20210;-61
2023/03/22 09:09:08;;;;;;;2.92;1.60;;;;;;;;;;5091154;28;20208;-61
2023/03/22 09:11:39;;;;;;;2.87;1.37;;;;;;;;;;5091119;28;20747;-61
2023/03/22 09:14:06;;;;;;;1.50;1.50;;;;;;;;;;5091029;28;20221;-62
2023/03/22 09:16:33;;;;;;;4.50;1.23;;;;;;;;;;5091921;28;20549;-64
2023/03/22 09:19:01;;;;;;;1.25;1.15;;;;;;;;;;5091009;28;20230;-64
2023/03/22 09:21:29;;;;;;;2.20;1.30;;;;;;;;;;5091938;28;20762;-64
2023/03/22 09:23:56;;;;;;;4.03;1.38;;;;;;;;;;5107480;28;20298;-63
2023/03/22 09:26:24;;;;;;;3.30;1.10;;;;;;;;;;5101582;28;20271;-64
2023/03/22 09:28:52;;;;;;;1.15;1.00;;;;;;;;;;5104920;28;20352;-64
2023/03/22 09:31:19;;;;;;;0.82;0.82;;;;;;;;;;5097377;28;20677;-65
2023/03/22 09:33:47;;;;;;;0.93;0.93;;;;;;;;;;5095565;28;20204;-63
2023/03/22 09:36:14;;;;;;;0.60;0.60;;;;;;;;;;5103899;28;20213;-64
2023/03/22 09:38:41;;;;;;;0.63;0.63;;;;;;;;;;5110694;28;20695;-64
2023/03/22 09:41:12;;;;;;;0.90;0.57;;;;;;;;;;5103134;28;20214;-62
2023/03/22 09:43:42;;;;;;;2.85;0.93;;;;;;;;;;5090366;28;20198;-61
2023/03/22 09:46:13;;;;;;;1.38;0.40;;;;;;;;;;5094371;28;20259;-63
2023/03/22 09:48:42;;;;;;;1.13;0.60;;;;;;;;;;5105952;28;20198;-61
2023/03/22 09:51:17;;;;;;;1.67;0.93;;;;;;;;;;5102198;28;20205;-62
2023/03/22 09:53:44;;;;;;;0.30;0.30;;;;;;;;;;5090397;28;20206;-61
2023/03/22 09:56:15;;;;;;;0.70;0.65;;;;;;;;;;5093063;28;20271;-62
2023/03/22 09:58:47;;;;;;;0.85;0.85;;;;;;;;;;5078447;28;20968;-62
2023/03/22 10:01:21;;;;;;;0.82;0.82;;;;;;;;;;5083842;28;20214;-62
2023/03/22 10:03:55;;;;;;;1.05;0.60;;;;;;;;;;5089952;28;20297;-64
2023/03/22 10:06:24;;;;;;;1.50;0.50;;;;;;;;;;5089919;28;20207;-63
2023/03/22 10:08:55;;;;;;;0.50;0.50;;;;;;;;;;5091502;28;20289;-61
2023/03/22 10:11:25;;;;;;;0.57;0.57;;;;;;;;;;5093510;28;20206;-62
2023/03/22 10:13:57;;;;;;;0.40;0.40;;;;;;;;;;5087472;28;20716;-69
2023/03/22 10:16:31;;;;;;;0.70;0.70;;;;;;;;;;5079669;28;20203;-62
2023/03/22 10:19:02;;;;;;;0.70;0.70;;;;;;;;;;5087819;28;20218;-62
2023/03/22 10:21:30;;;;;;;0.90;0.70;;;;;;;;;;5093476;28;20283;-66
2023/03/22 10:23:59;;;;;;;0.57;0.57;;;;;;;;;;5089369;28;20221;-62
2023/03/22 10:26:29;;;;;;;0.40;0.40;;;;;;;;;;5089421;28;20226;-67
2023/03/22 10:28:59;;;;;;;0.60;0.60;;;;;;;;;;5092596;28;20296;-62
2023/03/22 10:31:27;;;;;;;1.05;0.57;;;;;;;;;;5090262;28;20202;-62
2023/03/22 10:33:56;;;;;;;0.40;0.40;;;;;;;;;;5099147;28;20289;-63
2023/03/22 10:36:25;;;;;;;1.48;0.55;;;;;;;;;;5093704;28;20298;-63
2023/03/22 10:38:55;;;;;;;0.50;0.50;;;;;;;;;;5090274;28;20213;-63
2023/03/22 10:44:26;;;;;;;0.60;0.60;;;;;;;;;;5084081;28;20221;-63
2023/03/22 10:46:56;;;;;;;0.40;0.40;;;;;;;;;;5083721;28;20237;-63
2023/03/22 10:49:26;;;;;;;0.60;0.50;;;;;;;;;;5082277;28;20335;-63
2023/03/22 10:51:55;;;;;;;0.60;0.60;;;;;;;;;;5088512;28;20210;-63
2023/03/22 10:54:22;;;;;;;0.50;0.50;;;;;;;;;;5087709;28;20277;-62
2023/03/22 10:56:49;;;;;;;0.40;0.40;;;;;;;;;;5093385;28;20214;-62
2023/03/22 10:59:35;;;;;;;1.38;0.70;;;;;;;;;;5099627;28;20229;-62
2023/03/22 11:02:04;;;;;;;0.40;0.40;;;;;;;;;;5109170;28;20288;-62
2023/03/22 11:04:32;;;;;;;0.98;0.65;;;;;;;;;;5091873;28;20494;-64
2023/03/22 11:06:59;;;;;;;15.60;9.15;;;;;;;;;;5088887;28;20279;-63
2023/03/22 11:09:26;;;;;;;0.68;0.68;;;;;;;;;;5088150;28;20210;-62
2023/03/22 11:11:54;;;;;;;0.50;0.50;;;;;;;;;;5088204;28;20206;-62
2023/03/22 11:14:25;;;;;;;0.50;0.50;;;;;;;;;;5089557;28;20339;-62
2023/03/22 11:16:53;;;;;;;0.55;0.55;;;;;;;;;;5089337;28;20225;-62
2023/03/22 11:19:25;;;;;;;0.43;0.43;;;;;;;;;;5088069;28;20233;-63
2023/03/22 11:21:53;;;;;;;0.50;0.50;;;;;;;;;;5087935;28;20328;-63
2023/03/22 11:24:21;;;;;;;0.60;0.60;;;;;;;;;;5087639;28;20215;-63
2023/03/22 11:27:02;;;;;;;0.68;0.68;;;;;;;;;;5089024;28;20738;-62
2023/03/22 11:29:29;;;;;;;0.55;0.55;;;;;;;;;;5088129;28;20291;-62
2023/03/22 11:31:58;;;;;;;0.77;0.70;;;;;;;;;;5087946;28;20726;-62
2023/03/22 11:34:28;;;;;;;0.55;0.50;;;;;;;;;;5088084;28;20300;-63
2023/03/22 11:36:56;;;;;;;0.55;0.50;;;;;;;;;;5088220;28;20295;-63
2023/03/22 11:39:26;;;;;;;0.30;0.30;;;;;;;;;;5086946;28;20261;-62
2023/03/22 11:41:56;;;;;;;0.50;0.50;;;;;;;;;;5087597;28;20206;-63
2023/03/22 11:44:23;;;;;;;1.67;0.80;;;;;;;;;;5087793;28;20214;-63
2023/03/22 11:46:53;;;;;;;0.55;0.55;;;;;;;;;;5089447;28;20213;-62
2023/03/22 11:49:21;;;;;;;0.40;0.40;;;;;;;;;;5095179;28;20359;-63
2023/03/22 11:51:49;;;;;;;0.65;0.65;;;;;;;;;;5095134;28;20214;-63
2023/03/22 11:54:23;;;;;;;0.63;0.63;;;;;;;;;;5083177;28;20801;-63
2023/03/22 11:56:51;;;;;;;0.88;0.55;;;;;;;;;;5085801;28;20229;-61
2023/03/22 11:59:23;;;;;;;0.40;0.40;;;;;;;;;;5090295;28;20904;-62
2023/03/22 12:01:52;;;;;;;0.60;0.60;;;;;;;;;;5094739;28;20209;-62
2023/03/22 12:04:23;;;;;;;0.60;0.60;;;;;;;;;;5091886;28;20662;-63
2023/03/22 12:06:53;;;;;;;0.50;0.45;;;;;;;;;;5106557;28;20194;-62
2023/03/22 12:09:25;;;;;;;0.98;0.50;;;;;;;;;;5087019;28;20229;-62
2023/03/22 12:11:54;;;;;;;0.40;0.40;;;;;;;;;;5100727;28;20197;-62
2023/03/22 12:14:23;;;;;;;0.55;0.55;;;;;;;;;;5104541;28;20617;-62
2023/03/22 12:16:51;;;;;;;0.60;0.60;;;;;;;;;;5089338;28;20448;-61
2023/03/22 12:19:23;;;;;;;0.68;0.68;;;;;;;;;;5107305;28;20210;-61
2023/03/22 12:21:52;;;;;;;2.15;0.47;;;;;;;;;;5098340;28;20317;-62
2023/03/22 12:24:24;;;;;;;1.35;0.35;;;;;;;;;;5086369;28;20218;-62
2023/03/22 12:26:53;;;;;;;1.23;0.65;;;;;;;;;;5086201;28;20211;-62
2023/03/22 12:29:20;;;;;;;1.08;0.50;;;;;;;;;;5087167;28;20256;-62
2023/03/22 12:31:52;;;;;;;2.90;0.93;;;;;;;;;;5086882;28;20233;-63
2023/03/22 12:34:22;;;;;;;0.40;0.40;;;;;;;;;;5086792;28;20210;-63
2023/03/22 12:36:51;;;;;;;1.45;0.30;;;;;;;;;;5089710;28;20263;-63
2023/03/22 12:39:23;;;;;;;0.40;0.40;;;;;;;;;;5092414;28;20247;-63
2023/03/22 12:41:51;;;;;;;1.02;0.50;;;;;;;;;;5092207;28;20210;-63
2023/03/22 12:44:22;;;;;;;2.65;0.50;;;;;;;;;;5091026;28;20214;-63
2023/03/22 12:46:50;;;;;;;0.45;0.45;;;;;;;;;;5091710;28;20244;-63
2023/03/22 12:49:21;;;;;;;0.40;0.40;;;;;;;;;;5101859;28;20662;-63
2023/03/22 12:51:49;;;;;;;0.50;0.50;;;;;;;;;;5091329;28;20210;-64
2023/03/22 12:54:18;;;;;;;0.40;0.40;;;;;;;;;;5090315;28;20221;-62
2023/03/22 12:56:47;;;;;;;8.85;1.08;;;;;;;;;;5090814;28;20214;-63
2023/03/22 12:59:17;;;;;;;3.60;0.45;;;;;;;;;;5090763;28;20210;-63
2023/03/22 13:01:46;;;;;;;4.03;0.45;;;;;;;;;;5090260;28;20727;-62
2023/03/22 13:04:27;;;;;;;24.15;7.28;;;;;;;;;;5090221;28;20214;-60
2023/03/22 13:06:58;;;;;;;1.35;0.60;;;;;;;;;;5090345;28;20206;-62
2023/03/22 13:09:43;;;;;;;0.50;0.50;;;;;;;;;;5098063;28;20212;-63
2023/03/22 13:12:31;;;;;;;6.38;4.05;;;;;;;;;;5111318;28;20270;-61
2023/03/22 13:15:00;;;;;;;0.60;0.60;;;;;;;;;;5095681;28;20217;-62
2023/03/22 13:17:38;;;;;;;0.68;0.68;;;;;;;;;;5090699;28;20203;-62
2023/03/22 13:20:22;;;;;;;0.85;0.30;;;;;;;;;;5089863;28;20844;-62
2023/03/22 13:23:10;;;;;;;0.63;0.35;;;;;;;;;;5104726;28;20248;-62
2023/03/22 13:25:38;;;;;;;0.40;0.40;;;;;;;;;;5104182;28;20284;-62
2023/03/22 13:28:20;;;;;;;0.38;0.38;;;;;;;;;;5090811;28;20214;-62
2023/03/22 13:30:49;;;;;;;0.50;0.50;;;;;;;;;;5093913;28;20783;-62
2023/03/22 13:33:22;;;;;;;0.40;0.40;;;;;;;;;;5092003;28;20406;-62
2023/03/22 13:35:52;;;;;;;0.50;0.50;;;;;;;;;;5090224;28;20218;-63
2023/03/22 13:38:21;;;;;;;0.50;0.40;;;;;;;;;;5090905;28;20210;-62
2023/03/22 13:40:53;;;;;;;0.40;0.40;;;;;;;;;;5090924;28;20237;-62
2023/03/22 13:43:24;;;;;;;0.50;0.50;;;;;;;;;;5091491;28;20206;-62
2023/03/22 13:46:07;;;;;;;0.68;0.50;;;;;;;;;;5090582;28;20684;-61
2023/03/22 13:48:42;;;;;;;0.85;0.50;;;;;;;;;;5070184;28;20231;-62
2023/03/22 13:51:11;;;;;;;1.55;0.43;;;;;;;;;;5070436;28;20207;-62
2023/03/22 13:53:39;;;;;;;0.45;0.45;;;;;;;;;;5083189;28;20195;-62
2023/03/22 13:56:07;;;;;;;0.45;0.45;;;;;;;;;;5082577;28;20258;-62
2023/03/22 13:58:49;;;;;;;0.40;0.40;;;;;;;;;;5068386;28;20215;-62
2023/03/22 14:01:17;;;;;;;0.38;0.38;;;;;;;;;;5082124;28;20777;-62
2023/03/22 14:03:47;;;;;;;0.57;0.57;;;;;;;;;;5097372;28;20202;-62
2023/03/22 14:06:16;;;;;;;1.17;0.70;;;;;;;;;;5085206;28;20289;-62
2023/03/22 14:08:44;;;;;;;0.50;0.50;;;;;;;;;;5089963;28;20210;-61
2023/03/22 14:11:26;;;;;;;0.40;0.40;;;;;;;;;;5103825;28;20202;-61
2023/03/22 14:13:57;;;;;;;0.40;0.40;;;;;;;;;;5091386;28;20203;-61
2023/03/22 14:16:32;;;;;;;0.65;0.60;;;;;;;;;;5089629;28;20608;-61
2023/03/22 14:19:00;;;;;;;0.50;0.50;;;;;;;;;;5089678;28;20208;-61
2023/03/22 14:21:31;;;;;;;0.40;0.38;;;;;;;;;;5105629;28;20316;-61
2023/03/22 14:24:00;;;;;;;1.05;0.60;;;;;;;;;;5109004;28;20461;-62
2023/03/22 14:26:29;;;;;;;1.48;0.90;;;;;;;;;;5109443;28;20342;-62
2023/03/22 14:29:07;;;;;;;0.55;0.40;;;;;;;;;;5071013;28;20198;-62
2023/03/22 14:31:35;;;;;;;0.32;0.32;;;;;;;;;;5093856;28;20588;-62
2023/03/22 14:34:04;;;;;;;0.40;0.40;;;;;;;;;;5089036;28;20206;-62
2023/03/22 14:36:35;;;;;;;0.30;0.30;;;;;;;;;;5089237;28;20217;-62
2023/03/22 14:39:05;;;;;;;3.83;0.60;;;;;;;;;;5089302;28;20233;-62
2023/03/22 14:41:32;;;;;;;0.60;0.60;;;;;;;;;;5089182;28;20323;-62
2023/03/22 14:44:01;;;;;;;0.43;0.43;;;;;;;;;;5088937;28;20210;-62
2023/03/22 14:46:33;;;;;;;0.50;0.50;;;;;;;;;;5088882;28;20305;-62
2023/03/22 14:49:02;;;;;;;2.05;0.50;;;;;;;;;;5088708;28;20215;-61
2023/03/22 14:51:30;;;;;;;0.43;0.43;;;;;;;;;;5089380;28;20703;-61
2023/03/22 14:53:58;;;;;;;0.50;0.50;;;;;;;;;;5089046;28;20305;-62
2023/03/22 14:56:29;;;;;;;0.98;0.57;;;;;;;;;;5091802;28;20201;-62
2023/03/22 14:58:58;;;;;;;0.40;0.40;;;;;;;;;;5108638;28;20211;-62
2023/03/22 15:01:26;;;;;;;1.55;0.60;;;;;;;;;;5107009;28;20259;-61